Time;durP1;ratioP1;P1;durP2;ratioP2;P2;SDS_P1;SDS_P2;PMS_P1;PMS_P2;Temp;Humidity;BMP_temperature;BMP_pressure;BME280_temperature;BME280_humidity;BME280_pressure;Samples;Min_cycle;Max_cycle;Signal;HPM_P1;HPM_P2
2023/06/05 00:00:35;;;;;;;7.05;4.43;;;;;;;9.10;100.00;102516.97;5093507;28;20028;-79
2023/06/05 00:03:00;;;;;;;6.78;4.32;;;;;;;9.09;100.00;102517.03;5093734;28;20034;-80
2023/06/05 00:05:26;;;;;;;7.25;4.75;;;;;;;9.06;100.00;102520.75;5093431;28;20031;-80
2023/06/05 00:07:52;;;;;;;10.25;4.35;;;;;;;9.01;100.00;102517.50;5093617;28;20028;-80
2023/06/05 00:10:17;;;;;;;8.10;5.07;;;;;;;9.03;100.00;102522.72;5093886;28;20483;-81
2023/06/05 00:12:44;;;;;;;5.45;3.85;;;;;;;9.00;100.00;102519.31;5094427;28;20102;-81
2023/06/05 00:15:10;;;;;;;6.63;4.75;;;;;;;8.99;100.00;102522.03;5093360;28;20028;-80
2023/06/05 00:17:36;;;;;;;8.38;4.70;;;;;;;8.97;100.00;102524.78;5097677;28;20031;-81
2023/06/05 00:20:02;;;;;;;9.68;5.32;;;;;;;8.95;100.00;102517.84;5097596;28;20046;-81
2023/06/05 00:22:29;;;;;;;7.70;5.03;;;;;;;8.93;100.00;102517.09;5097449;28;20027;-80
2023/06/05 00:24:54;;;;;;;6.55;5.05;;;;;;;8.90;100.00;102523.41;5097912;28;20035;-80
2023/06/05 00:27:19;;;;;;;8.93;4.68;;;;;;;8.88;100.00;102527.94;5097300;28;20107;-81
2023/06/05 00:29:45;;;;;;;13.07;5.03;;;;;;;8.86;100.00;102518.38;5096997;28;20374;-81
2023/06/05 00:32:10;;;;;;;9.02;4.97;;;;;;;8.86;100.00;102529.84;5097663;28;20127;-81
2023/06/05 00:34:36;;;;;;;13.85;5.82;;;;;;;8.85;100.00;102527.28;5097147;28;20402;-81
2023/06/05 00:37:01;;;;;;;6.28;4.70;;;;;;;8.82;100.00;102523.84;5097362;28;20027;-81
2023/06/05 00:39:27;;;;;;;9.65;5.40;;;;;;;8.81;100.00;102523.94;5101023;28;20051;-80
2023/06/05 00:41:52;;;;;;;7.60;4.78;;;;;;;8.77;100.00;102519.75;5096778;28;20031;-80
2023/06/05 00:44:18;;;;;;;6.28;4.95;;;;;;;8.76;100.00;102520.69;5097373;28;20039;-81
2023/06/05 00:46:45;;;;;;;10.38;5.32;;;;;;;8.74;100.00;102517.28;5096995;28;20102;-81
2023/06/05 00:49:11;;;;;;;11.25;5.50;;;;;;;8.70;100.00;102521.03;5096656;28;20028;-81
2023/06/05 00:51:39;;;;;;;8.82;4.85;;;;;;;8.63;100.00;102517.88;5096680;28;20032;-80
2023/06/05 00:54:05;;;;;;;8.88;5.38;;;;;;;8.60;100.00;102515.41;5097139;28;20444;-81
2023/06/05 00:56:32;;;;;;;7.28;5.50;;;;;;;8.57;100.00;102520.84;5097224;28;20040;-81
2023/06/05 00:58:58;;;;;;;10.10;5.10;;;;;;;8.56;100.00;102517.34;5096449;28;20115;-80
2023/06/05 01:01:24;;;;;;;8.82;5.90;;;;;;;8.55;100.00;102517.44;5096919;28;20052;-79
2023/06/05 01:03:50;;;;;;;11.00;5.47;;;;;;;8.51;100.00;102514.09;5096376;28;20036;-80
2023/06/05 01:06:17;;;;;;;12.77;5.93;;;;;;;8.49;100.00;102517.78;5096456;28;20032;-79
2023/06/05 01:08:44;;;;;;;10.40;5.57;;;;;;;8.45;100.00;102520.59;5096317;28;20047;-81
2023/06/05 01:11:16;;;;;;;9.20;5.85;;;;;;;8.43;100.00;102510.97;5096227;28;20028;-79
2023/06/05 01:13:50;;;;;;;11.45;6.00;;;;;;;8.42;100.00;102515.44;5095965;28;20103;-80
2023/06/05 01:16:15;;;;;;;11.52;5.88;;;;;;;8.41;100.00;102515.50;5096490;28;20028;-80
2023/06/05 01:18:45;;;;;;;8.38;5.95;;;;;;;8.37;100.00;102509.50;5096496;28;20131;-80
2023/06/05 01:21:15;;;;;;;10.10;6.18;;;;;;;8.33;100.00;102502.69;5096665;28;20067;-80
2023/06/05 01:23:44;;;;;;;9.70;5.85;;;;;;;8.29;100.00;102503.78;5096071;28;20057;-80
2023/06/05 01:26:15;;;;;;;7.90;6.10;;;;;;;8.28;100.00;102504.69;5096019;28;20431;-80
2023/06/05 01:28:41;;;;;;;9.55;6.05;;;;;;;8.29;100.00;102503.78;5095438;28;20024;-80
2023/06/05 01:31:16;;;;;;;11.35;6.38;;;;;;;8.28;100.00;102504.69;5095984;28;20028;-80
2023/06/05 01:33:50;;;;;;;12.27;6.88;;;;;;;8.26;100.00;102499.47;5095812;28;20098;-80
2023/06/05 01:36:16;;;;;;;8.38;5.97;;;;;;;8.24;100.00;102500.50;5095844;28;20093;-80
2023/06/05 01:38:43;;;;;;;11.98;6.35;;;;;;;8.20;100.00;102502.47;5096349;28;20476;-80
2023/06/05 01:41:10;;;;;;;11.82;7.07;;;;;;;8.18;100.00;102499.06;5095657;28;20070;-80
2023/06/05 01:43:36;;;;;;;11.60;6.88;;;;;;;8.14;100.00;102500.16;5095752;28;20486;-79
2023/06/05 01:46:01;;;;;;;11.68;7.13;;;;;;;8.15;100.00;102490.41;5095725;28;20090;-80
2023/06/05 01:48:28;;;;;;;11.05;6.55;;;;;;;8.11;100.00;102487.91;5095530;28;20117;-80
2023/06/05 01:50:58;;;;;;;9.75;6.25;;;;;;;8.06;100.00;102492.63;5095525;28;20158;-79
2023/06/05 01:53:24;;;;;;;11.45;7.15;;;;;;;8.05;100.00;102493.53;5095532;28;20080;-79
2023/06/05 01:55:52;;;;;;;10.95;6.72;;;;;;;8.02;100.00;102485.75;5095368;28;20152;-79
2023/06/05 01:58:18;;;;;;;9.35;6.68;;;;;;;8.00;100.00;102492.06;5095435;28;20028;-80
2023/06/05 02:00:45;;;;;;;9.88;6.95;;;;;;;7.98;100.00;102491.31;5095885;28;20043;-80
2023/06/05 02:03:10;;;;;;;9.55;6.70;;;;;;;7.94;100.00;102487.94;5095729;28;20024;-80
2023/06/05 02:05:35;;;;;;;9.80;6.90;;;;;;;7.91;100.00;102489.00;5095603;28;20456;-79
2023/06/05 02:08:05;;;;;;;11.50;7.20;;;;;;;7.87;100.00;102484.78;5077291;28;20055;-79
2023/06/05 02:10:31;;;;;;;10.77;7.35;;;;;;;7.87;100.00;102489.25;5095009;28;20032;-79
2023/06/05 02:12:56;;;;;;;12.95;6.93;;;;;;;7.86;100.00;102493.66;5094908;28;20474;-79
2023/06/05 02:15:22;;;;;;;14.80;7.63;;;;;;;7.85;100.00;102488.44;5095051;28;20475;-79
2023/06/05 02:17:52;;;;;;;12.32;7.28;;;;;;;7.83;100.00;102485.88;5094758;28;20464;-79
2023/06/05 02:20:19;;;;;;;8.57;6.35;;;;;;;7.81;100.00;102482.47;5095338;28;20024;-79
2023/06/05 02:22:45;;;;;;;10.25;6.55;;;;;;;7.78;100.00;102485.28;5095203;28;20181;-79
2023/06/05 02:25:11;;;;;;;12.90;7.07;;;;;;;7.75;100.00;102486.28;5094717;28;20055;-80
2023/06/05 02:27:37;;;;;;;10.55;7.22;;;;;;;7.74;100.00;102489.84;5095012;28;20024;-80
2023/06/05 02:30:02;;;;;;;11.93;7.57;;;;;;;7.72;100.00;102483.78;5094695;28;20367;-80
2023/06/05 02:32:28;;;;;;;11.25;7.25;;;;;;;7.71;100.00;102479.44;5094894;28;20131;-80
2023/06/05 02:34:56;;;;;;;11.30;7.30;;;;;;;7.70;100.00;102476.84;5094507;28;20130;-80
2023/06/05 02:37:22;;;;;;;14.93;8.68;;;;;;;7.70;100.00;102482.16;5077589;28;20114;-80
2023/06/05 02:39:48;;;;;;;12.18;7.90;;;;;;;7.70;100.00;102476.84;5093685;28;20024;-79
2023/06/05 02:42:13;;;;;;;12.80;8.35;;;;;;;7.69;100.00;102483.13;5076957;28;20032;-80
2023/06/05 02:44:38;;;;;;;11.98;7.32;;;;;;;7.65;100.00;102482.41;5094460;28;20039;-80
2023/06/05 02:47:04;;;;;;;10.02;7.40;;;;;;;7.64;100.00;102485.97;5076761;28;20036;-80
2023/06/05 02:49:30;;;;;;;15.73;7.45;;;;;;;7.64;100.00;102485.13;5094937;28;20063;-80
2023/06/05 02:51:55;;;;;;;13.65;7.80;;;;;;;7.64;100.00;102478.03;5094427;28;20034;-79
2023/06/05 02:54:21;;;;;;;15.30;7.57;;;;;;;7.65;100.00;102481.56;5094200;28;20028;-80
2023/06/05 02:56:47;;;;;;;12.88;8.05;;;;;;;7.63;100.00;102472.81;5094883;28;20112;-80
2023/06/05 02:59:12;;;;;;;15.65;8.00;;;;;;;7.64;100.00;102475.38;5094119;28;20024;-79
2023/06/05 03:01:46;;;;;;;10.68;7.47;;;;;;;7.62;100.00;102473.75;5094225;28;20031;-80
2023/06/05 03:04:12;;;;;;;14.73;7.93;;;;;;;7.61;100.00;102470.25;5094561;28;20058;-80
2023/06/05 03:06:43;;;;;;;12.13;7.75;;;;;;;7.60;100.00;102476.50;5094188;28;20523;-80
2023/06/05 03:09:09;;;;;;;13.45;8.00;;;;;;;7.59;100.00;102470.31;5094083;28;20051;-80
2023/06/05 03:11:34;;;;;;;12.80;7.80;;;;;;;7.57;100.00;102471.34;5075457;28;20056;-80
2023/06/05 03:13:59;;;;;;;14.25;7.57;;;;;;;7.56;100.00;102465.19;5093951;28;20058;-80
2023/06/05 03:16:32;;;;;;;13.25;8.35;;;;;;;7.56;100.00;102469.63;5093858;28;20474;-80
2023/06/05 03:18:57;;;;;;;13.90;8.48;;;;;;;7.56;100.00;102464.34;5094097;28;20039;-80
2023/06/05 03:21:23;;;;;;;12.07;8.25;;;;;;;7.56;100.00;102467.00;5093682;28;20410;-81
2023/06/05 03:23:48;;;;;;;19.42;8.95;;;;;;;7.54;100.00;102464.41;5094051;28;20389;-80
2023/06/05 03:26:13;;;;;;;14.63;8.10;;;;;;;7.53;100.00;102464.50;5093642;28;20051;-80
2023/06/05 03:28:39;;;;;;;11.73;7.80;;;;;;;7.52;100.00;102468.06;5093929;28;20028;-80
2023/06/05 03:31:04;;;;;;;16.40;8.65;;;;;;;7.52;100.00;102463.63;5093724;28;20078;-80
2023/06/05 03:33:30;;;;;;;14.52;9.02;;;;;;;7.53;100.00;102462.69;5093472;28;20475;-81
2023/06/05 03:35:55;;;;;;;19.40;8.30;;;;;;;7.52;100.00;102460.97;5075755;28;20031;-80
2023/06/05 03:38:21;;;;;;;13.65;8.13;;;;;;;7.53;100.00;102462.69;5093836;28;20028;-80
2023/06/05 03:40:46;;;;;;;11.93;8.27;;;;;;;7.53;100.00;102460.03;5093567;28;20066;-80
2023/06/05 03:43:11;;;;;;;15.10;8.60;;;;;;;7.53;100.00;102462.69;5093195;28;20111;-80
2023/06/05 03:45:40;;;;;;;16.33;8.40;;;;;;;7.55;100.00;102466.13;5093182;28;20466;-80
2023/06/05 03:48:06;;;;;;;12.10;7.70;;;;;;;7.58;100.00;102465.09;5093384;28;20028;-80
2023/06/05 03:50:33;;;;;;;13.63;7.88;;;;;;;7.56;100.00;102467.00;5093218;28;20031;-80
2023/06/05 03:53:03;;;;;;;15.00;7.80;;;;;;;7.59;100.00;102469.47;5093447;28;20448;-79
2023/06/05 03:55:40;;;;;;;13.45;7.68;;;;;;;7.61;100.00;102469.41;5093274;28;20486;-79
2023/06/05 03:58:07;;;;;;;14.15;7.72;;;;;;;7.62;100.00;102471.97;5094271;28;20034;-78
2023/06/05 04:00:33;;;;;;;15.88;8.13;;;;;;;7.65;100.00;102471.81;5093923;28;20039;-79
2023/06/05 04:02:59;;;;;;;10.82;7.43;;;;;;;7.67;100.00;102474.38;5093584;28;20036;-79
2023/06/05 04:05:24;;;;;;;12.10;6.95;;;;;;;7.72;100.00;102482.94;5093936;28;20114;-79
2023/06/05 04:07:50;;;;;;;12.05;7.75;;;;;;;7.81;100.00;102476.28;5093122;28;20052;-79
2023/06/05 04:10:15;;;;;;;15.63;7.50;;;;;;;7.90;100.00;102474.03;5093248;28;20086;-78
2023/06/05 04:12:40;;;;;;;10.45;7.22;;;;;;;8.02;100.00;102471.66;5093371;28;20024;-80
2023/06/05 04:15:06;;;;;;;9.65;6.97;;;;;;;8.12;100.00;102472.84;5093244;28;20474;-79
2023/06/05 04:17:32;;;;;;;12.57;6.88;;;;;;;8.20;100.00;102475.94;5092767;28;20024;-80
2023/06/05 04:19:57;;;;;;;11.50;7.07;;;;;;;8.27;100.00;102473.81;5075116;28;20439;-79
2023/06/05 04:22:22;;;;;;;12.02;6.80;;;;;;;8.34;100.00;102475.19;5092999;28;20115;-79
2023/06/05 04:24:48;;;;;;;12.38;6.20;;;;;;;8.42;100.00;102472.09;5093595;28;20081;-78
2023/06/05 04:27:14;;;;;;;9.35;6.18;;;;;;;8.50;100.00;102479.69;5093044;28;20039;-79
2023/06/05 04:29:40;;;;;;;10.27;6.15;;;;;;;8.59;100.00;102479.19;5092676;28;20024;-80
2023/06/05 04:32:07;;;;;;;10.35;6.25;;;;;;;8.67;100.00;102482.25;5093103;28;20032;-80
2023/06/05 04:34:32;;;;;;;11.30;6.13;;;;;;;8.75;100.00;102485.34;5074720;28;20024;-79
2023/06/05 04:36:58;;;;;;;12.57;5.43;;;;;;;8.83;100.00;102491.03;5092778;28;20034;-79
2023/06/05 04:39:23;;;;;;;9.13;5.22;;;;;;;8.94;100.00;102485.16;5075360;28;20024;-79
2023/06/05 04:41:49;;;;;;;7.82;5.53;;;;;;;9.07;100.00;102487.09;5092598;28;20069;-79
2023/06/05 04:44:18;;;;;;;9.43;5.72;;;;;;;9.17;100.00;102488.25;5093373;28;20027;-80
2023/06/05 04:46:45;;;;;;;10.80;4.93;;;;;;;9.28;100.00;102493.78;5093099;28;20028;-80
2023/06/05 04:49:11;;;;;;;10.20;5.55;;;;;;;9.39;100.00;102493.16;5092906;28;20032;-80
2023/06/05 04:51:37;;;;;;;7.55;5.40;;;;;;;9.50;100.00;102485.41;5092863;28;20098;-80
2023/06/05 04:54:03;;;;;;;9.40;5.68;;;;;;;9.62;100.00;102488.28;5093378;28;20444;-80
2023/06/05 04:56:29;;;;;;;13.00;4.93;;;;;;;9.72;100.00;102492.09;5092476;28;20047;-80
2023/06/05 04:58:54;;;;;;;6.32;4.38;;;;;;;9.84;100.00;102487.84;5093524;28;20032;-79
2023/06/05 05:01:20;;;;;;;6.90;5.00;;;;;;;9.94;100.00;102488.97;5092838;28;20081;-79
2023/06/05 05:03:47;;;;;;;6.63;4.78;;;;;;;10.03;100.00;102492.84;5095750;28;20067;-80
2023/06/05 05:06:16;;;;;;;7.38;4.97;;;;;;;10.15;100.00;102493.91;5096524;28;20027;-80
2023/06/05 05:08:48;;;;;;;6.38;4.75;;;;;;;10.24;100.00;102493.34;5078304;28;20062;-79
2023/06/05 05:11:14;;;;;;;8.98;4.30;;;;;;;10.35;100.00;102488.22;5097294;28;20344;-80
2023/06/05 05:13:39;;;;;;;7.22;4.80;;;;;;;10.40;100.00;102487.91;5096197;28;20028;-81
2023/06/05 05:16:05;;;;;;;8.95;5.18;;;;;;;10.47;100.00;102488.41;5096274;28;20443;-79
2023/06/05 05:18:30;;;;;;;10.80;5.03;;;;;;;10.50;100.00;102485.53;5096419;28;20030;-78
2023/06/05 05:20:55;;;;;;;5.93;4.97;;;;;;;10.56;100.00;102487.81;5077774;28;20051;-79
2023/06/05 05:23:21;;;;;;;7.65;5.00;;;;;;;10.66;100.00;102488.91;5095990;28;20348;-79
2023/06/05 05:25:46;;;;;;;7.18;5.18;;;;;;;10.76;100.00;102483.84;5095793;28;20058;-79
2023/06/05 05:28:13;;;;;;;7.88;5.13;;;;;;;10.87;100.00;102478.66;5095972;28;20472;-79
2023/06/05 05:30:38;;;;;;;11.98;4.95;;;;;;;10.99;100.00;102477.00;5096437;28;20116;-79
2023/06/05 05:33:03;;;;;;;7.20;4.95;;;;;;;11.08;100.00;102479.06;5095744;28;20071;-79
2023/06/05 05:35:30;;;;;;;9.25;5.00;;;;;;;11.18;100.00;102481.97;5095456;28;20401;-79
2023/06/05 05:37:55;;;;;;;7.35;4.88;;;;;;;11.29;100.00;102487.41;5095384;28;20046;-79
2023/06/05 05:40:21;;;;;;;7.85;5.10;;;;;;;11.39;100.00;102487.66;5095992;28;20020;-79
2023/06/05 05:42:46;;;;;;;6.13;4.53;;;;;;;11.50;100.00;102480.75;5095888;28;20067;-80
2023/06/05 05:45:11;;;;;;;9.43;4.78;;;;;;;11.60;100.00;102476.50;5077404;28;20028;-80
2023/06/05 05:47:37;;;;;;;11.93;4.93;;;;;;;11.70;100.00;102476.69;5095639;28;20052;-79
2023/06/05 05:50:02;;;;;;;8.52;4.72;;;;;;;11.79;100.00;102473.38;5095944;28;20032;-79
2023/06/05 05:52:28;;;;;;;6.90;4.25;;;;;;;11.88;100.00;102486.06;5095490;28;20363;-79
2023/06/05 05:54:53;;;;;;;7.07;4.20;;;;;;;12.02;100.00;102478.94;5095579;28;20426;-79
2023/06/05 05:57:18;;;;;;;6.85;4.38;;;;;;;12.14;100.00;102486.09;5095632;28;20032;-78
2023/06/05 05:59:46;;;;;;;6.70;4.38;;;;;;;12.17;100.00;102476.03;5095465;28;20044;-79
2023/06/05 06:02:12;;;;;;;7.97;4.30;;;;;;;12.23;100.00;102473.91;5077534;28;20080;-80
2023/06/05 06:04:38;;;;;;;7.55;4.60;;;;;;;12.28;100.00;102487.75;5095689;28;20024;-79
2023/06/05 06:07:05;;;;;;;10.55;4.90;;;;;;;12.31;100.00;102483.03;5095433;28;20028;-79
2023/06/05 06:09:31;;;;;;;6.45;4.47;;;;;;;12.38;100.00;102490.63;5095547;28;20219;-79
2023/06/05 06:11:56;;;;;;;12.27;5.05;;;;;;;12.43;100.00;102486.66;5095143;28;20062;-81
2023/06/05 06:14:25;;;;;;;6.80;4.72;;;;;;;12.53;100.00;102485.03;5095267;28;20066;-80
2023/06/05 06:16:51;;;;;;;5.22;4.10;;;;;;;12.58;100.00;102495.34;5095585;28;20344;-80
2023/06/05 06:19:16;;;;;;;7.60;4.72;;;;;;;12.67;100.00;102491.16;5094961;28;20036;-81
2023/06/05 06:21:42;;;;;;;8.50;4.20;;;;;;;12.73;100.00;102487.19;5094893;28;20020;-79
2023/06/05 06:24:08;;;;;;;5.07;4.45;;;;;;;12.83;100.00;102496.25;5077291;28;20036;-80
2023/06/05 06:26:34;;;;;;;13.70;4.47;;;;;;;12.88;100.00;102494.06;5076659;28;20035;-81
2023/06/05 06:28:59;;;;;;;7.55;4.43;;;;;;;12.99;100.00;102487.94;5095110;28;20081;-79
2023/06/05 06:31:25;;;;;;;6.30;4.45;;;;;;;12.99;100.00;102490.63;5076379;28;20039;-83
2023/06/05 06:33:50;;;;;;;4.30;3.88;;;;;;;13.05;100.00;102500.84;5094683;28;20028;-83
2023/06/05 06:36:17;;;;;;;6.07;4.40;;;;;;;13.00;100.00;102493.19;5094317;28;20077;-78
2023/06/05 06:38:43;;;;;;;6.60;4.20;;;;;;;13.10;100.00;102503.19;5094334;28;20028;-79
2023/06/05 06:41:09;;;;;;;8.75;4.25;;;;;;;13.19;100.00;102506.00;5093958;28;20020;-79
2023/06/05 06:43:34;;;;;;;6.57;3.95;;;;;;;13.34;100.00;102505.84;5094187;28;20028;-80
2023/06/05 06:46:00;;;;;;;4.95;3.80;;;;;;;13.36;100.00;102502.09;5094165;28;20028;-80
2023/06/05 06:48:25;;;;;;;4.75;4.00;;;;;;;13.25;100.00;102509.19;5093826;28;20084;-79
2023/06/05 06:50:52;;;;;;;6.57;4.25;;;;;;;13.26;100.00;102501.06;5075750;28;20052;-82
2023/06/05 06:53:18;;;;;;;5.05;4.32;;;;;;;13.20;100.00;102512.22;5094638;28;20085;-81
2023/06/05 06:55:44;;;;;;;5.35;3.72;;;;;;;13.23;100.00;102506.63;5093590;28;20044;-82
2023/06/05 06:58:09;;;;;;;5.80;4.05;;;;;;;13.48;100.00;102499.44;5094201;28;20027;-76
2023/06/05 07:00:34;;;;;;;5.15;3.80;;;;;;;13.83;100.00;102499.38;5093995;28;20478;-80
2023/06/05 07:03:00;;;;;;;6.18;3.83;;;;;;;14.23;100.00;102493.53;5094407;28;20427;-80
2023/06/05 07:05:26;;;;;;;3.83;3.10;;;;;;;14.53;100.00;102497.41;5094008;28;20046;-79
2023/06/05 07:07:51;;;;;;;5.38;3.42;;;;;;;14.73;100.00;102493.13;5093772;28;20028;-81
2023/06/05 07:10:17;;;;;;;4.90;3.45;;;;;;;14.91;100.00;102500.63;5076102;28;20115;-81
2023/06/05 07:12:42;;;;;;;5.22;3.30;;;;;;;15.02;100.00;102500.59;5093848;28;20024;-77
2023/06/05 07:15:08;;;;;;;5.63;3.65;;;;;;;15.02;100.00;102502.41;5094474;28;20440;-77
2023/06/05 07:17:33;;;;;;;5.80;4.00;;;;;;;14.93;100.00;102509.41;5093639;28;20123;-77
2023/06/05 07:19:58;;;;;;;4.43;3.90;;;;;;;14.65;100.00;102506.31;5075954;28;20456;-80
2023/06/05 07:22:28;;;;;;;9.02;3.92;;;;;;;14.77;100.00;102505.28;5093910;28;20024;-79
2023/06/05 07:24:54;;;;;;;6.80;3.80;;;;;;;15.02;100.00;102508.63;5093538;28;20035;-80
2023/06/05 07:27:20;;;;;;;5.45;3.80;;;;;;;15.13;100.00;102505.88;5093368;28;20020;-81
2023/06/05 07:29:46;;;;;;;7.15;4.15;;;;;;;15.22;100.00;102511.47;5093897;28;20031;-82
2023/06/05 07:32:12;;;;;;;11.60;3.50;;;;;;;15.33;100.00;102506.91;5094528;28;20028;-82
2023/06/05 07:34:38;;;;;;;5.82;3.90;;;;;;;15.49;100.00;102505.59;5093787;28;20463;-81
2023/06/05 07:37:03;;;;;;;4.43;3.00;;;;;;;15.60;100.00;102507.34;5093861;28;20515;-80
2023/06/05 07:39:29;;;;;;;6.80;3.30;;;;;;;15.81;100.00;102508.22;5094039;28;20445;-80
2023/06/05 07:41:55;;;;;;;4.57;3.42;;;;;;;16.06;100.00;102508.75;5093644;28;20033;-80
2023/06/05 07:44:23;;;;;;;7.45;3.60;;;;;;;16.07;100.00;102499.72;5093451;28;20028;-81
2023/06/05 07:46:50;;;;;;;5.22;3.55;;;;;;;16.13;100.00;102507.25;5093364;28;20456;-80
2023/06/05 07:49:15;;;;;;;4.38;3.50;;;;;;;15.96;100.00;102498.00;5093818;28;20028;-81
2023/06/05 07:51:42;;;;;;;6.75;3.35;;;;;;;15.93;100.00;102500.94;5093413;28;20470;-82
2023/06/05 07:54:09;;;;;;;4.90;4.00;;;;;;;15.99;100.00;102503.09;5094823;28;20115;-82
2023/06/05 07:56:35;;;;;;;5.63;3.50;;;;;;;16.13;100.00;102509.91;5095114;28;20055;-81
2023/06/05 07:59:02;;;;;;;5.57;4.13;;;;;;;16.28;100.00;102505.03;5094010;28;20031;-81
2023/06/05 08:01:31;;;;;;;4.75;3.58;;;;;;;16.38;100.00;102497.03;5093723;28;20081;-81
2023/06/05 08:03:57;;;;;;;6.80;3.60;;;;;;;16.53;100.00;102501.00;5093443;28;20090;-83
2023/06/05 08:06:27;;;;;;;5.82;3.72;;;;;;;16.53;100.00;102501.00;5093992;28;20110;-85
2023/06/05 08:08:52;;;;;;;4.15;3.40;;;;;;;16.55;100.00;102496.34;5093654;28;20448;-84
2023/06/05 08:11:18;;;;;;;5.28;4.07;;;;;;;16.67;100.00;102497.06;5075335;28;20076;-84
2023/06/05 08:13:43;;;;;;;15.88;3.75;;;;;;;16.84;100.00;102500.94;5093333;28;20105;-80
2023/06/05 08:16:09;;;;;;;6.25;3.60;;;;;;;17.05;100.00;102497.28;5093533;28;20345;-83
2023/06/05 08:18:34;;;;;;;6.20;3.67;;;;;;;17.04;100.00;102499.13;5093352;28;20387;-83
2023/06/05 08:20:59;;;;;;;5.68;3.40;;;;;;;17.31;100.00;102502.94;5093297;28;20368;-82
2023/06/05 08:23:26;;;;;;;4.85;3.20;;;;;;;17.62;100.00;102503.59;5093453;28;20122;-84
2023/06/05 08:25:53;;;;;;;7.63;3.33;;;;;;;17.77;100.00;102497.75;5093644;28;20035;-79
2023/06/05 08:28:19;;;;;;;9.75;3.53;;;;;;;17.71;100.00;102501.03;5093144;28;20020;-83
2023/06/05 08:30:45;;;;;;;7.80;3.70;;;;;;;17.65;100.00;102499.75;5093143;28;20475;-82
2023/06/05 08:33:10;;;;;;;7.35;3.45;;;;;;;17.67;100.00;102495.06;5093338;28;20028;-75
2023/06/05 08:35:37;;;;;;;7.35;3.40;;;;;;;17.73;100.00;102499.03;5092781;28;20422;-80
2023/06/05 08:38:03;;;;;;;4.20;3.30;;;;;;;17.74;100.00;102495.34;5095638;28;20035;-83
2023/06/05 08:40:29;;;;;;;5.45;3.53;;;;;;;17.86;100.00;102486.09;5078899;28;20460;-82
2023/06/05 08:42:55;;;;;;;7.07;3.60;;;;;;;18.09;100.00;102488.44;5097572;28;20031;-82
2023/06/05 08:45:21;;;;;;;8.15;3.00;;;;;;;18.24;100.00;102486.97;5096990;28;20521;-81
2023/06/05 08:47:50;;;;;;;4.20;2.95;;;;;;;18.44;95.45;102479.59;5096742;28;20041;-83
2023/06/05 08:50:16;;;;;;;5.13;3.40;;;;;;;18.68;100.00;102483.56;5097357;28;20047;-85
2023/06/05 08:52:45;;;;;;;7.60;3.83;;;;;;;19.03;100.00;102484.59;5097723;28;20028;-82
2023/06/05 08:55:11;;;;;;;5.95;2.90;;;;;;;19.35;95.32;102475.09;5096817;28;20043;-81
2023/06/05 08:57:41;;;;;;;3.28;3.00;;;;;;;19.22;83.95;102471.94;5096776;28;20032;-83
2023/06/05 09:00:10;;;;;;;4.28;2.80;;;;;;;19.57;85.77;102473.69;5096292;28;20028;-82
2023/06/05 09:02:43;;;;;;;5.93;3.00;;;;;;;19.84;76.24;102479.94;5096974;28;20089;-81
2023/06/05 09:05:08;;;;;;;9.38;3.25;;;;;;;20.20;77.30;102483.34;5097066;28;20085;-80
2023/06/05 09:07:34;;;;;;;5.10;3.05;;;;;;;20.47;68.50;102483.25;5096392;28;20027;-82
2023/06/05 09:09:59;;;;;;;4.97;2.80;;;;;;;20.73;67.30;102473.19;5096601;28;20036;-80
2023/06/05 09:12:25;;;;;;;8.50;2.95;;;;;;;20.85;64.94;102476.41;5096690;28;20039;-80
2023/06/05 09:14:51;;;;;;;3.75;2.80;;;;;;;20.99;62.59;102474.94;5096907;28;20024;-82
2023/06/05 09:17:17;;;;;;;5.88;2.83;;;;;;;21.20;69.13;102478.97;5096456;28;20035;-81
2023/06/05 09:19:43;;;;;;;6.28;2.95;;;;;;;21.55;65.86;102468.81;5096388;28;20086;-80
2023/06/05 09:22:10;;;;;;;7.65;3.05;;;;;;;21.66;64.05;102463.88;5096136;28;20016;-82
2023/06/05 09:24:36;;;;;;;3.38;2.67;;;;;;;21.84;62.10;102466.34;5096631;28;20028;-79
2023/06/05 09:27:09;;;;;;;4.32;2.60;;;;;;;22.12;60.89;102467.75;5095808;28;20059;-78
2023/06/05 09:29:43;;;;;;;3.10;2.70;;;;;;;22.36;56.37;102467.69;5096121;28;20519;-78
2023/06/05 09:32:09;;;;;;;4.00;2.42;;;;;;;22.29;61.39;102460.41;5096784;28;20035;-82
2023/06/05 09:34:37;;;;;;;7.03;3.08;;;;;;;22.43;57.35;102466.97;5095749;28;20066;-79
2023/06/05 09:37:05;;;;;;;4.72;2.70;;;;;;;22.39;60.17;102463.75;5095853;28;20030;-79
2023/06/05 09:39:32;;;;;;;4.82;2.80;;;;;;;22.14;55.39;102463.03;5077673;28;20024;-80
2023/06/05 09:41:58;;;;;;;6.07;3.20;;;;;;;21.89;59.60;102459.56;5095652;28;20024;-80
2023/06/05 09:44:26;;;;;;;3.17;2.72;;;;;;;22.14;58.71;102473.88;5077689;28;20372;-77
2023/06/05 09:46:53;;;;;;;4.07;3.00;;;;;;;21.95;58.59;102457.00;5096337;28;20031;-77
2023/06/05 09:49:18;;;;;;;7.45;2.80;;;;;;;22.01;60.78;102463.59;5095412;28;20028;-79
2023/06/05 09:51:45;;;;;;;5.15;2.78;;;;;;;22.29;61.26;102455.81;5095617;28;20039;-78
2023/06/05 09:54:12;;;;;;;6.43;3.35;;;;;;;22.04;57.09;102463.22;5096763;28;20114;-84
2023/06/05 09:56:41;;;;;;;3.78;2.85;;;;;;;21.81;59.87;102460.44;5098541;28;20048;-84
2023/06/05 09:59:08;;;;;;;4.70;2.60;;;;;;;21.57;60.25;102461.34;5098193;28;20398;-83
2023/06/05 10:01:36;;;;;;;5.78;2.88;;;;;;;21.53;61.54;102460.84;5096598;28;20023;-85
2023/06/05 10:04:06;;;;;;;3.97;2.70;;;;;;;21.64;61.84;102459.63;5096239;28;20101;-85
2023/06/05 10:06:33;;;;;;;6.20;2.58;;;;;;;21.60;61.68;102455.59;5096617;28;20467;-85
2023/06/05 10:09:00;;;;;;;6.20;2.90;;;;;;;21.81;57.81;102455.00;5096218;28;20139;-85
2023/06/05 10:11:26;;;;;;;3.40;2.67;;;;;;;21.97;56.97;102451.41;5096111;28;20199;-84
2023/06/05 10:13:53;;;;;;;9.55;2.97;;;;;;;22.35;60.13;102452.44;5095890;28;20031;-84
2023/06/05 10:16:19;;;;;;;3.78;2.97;;;;;;;22.82;59.23;102447.84;5095890;28;20031;-84
2023/06/05 10:18:48;;;;;;;5.13;2.80;;;;;;;22.63;58.43;102451.94;5096272;28;20352;-86
2023/06/05 10:21:16;;;;;;;6.18;2.63;;;;;;;22.85;59.42;102442.06;5077800;28;20360;-85
2023/06/05 10:24:07;;;;;;;7.03;2.50;;;;;;;22.83;57.60;102448.72;5095606;28;20456;-82
2023/06/05 10:27:12;;;;;;;8.05;2.60;;;;;;;22.67;58.21;102446.97;5095493;28;20394;-83
2023/06/05 10:29:48;;;;;;;11.93;2.55;;;;;;;22.64;58.24;102444.63;5095399;28;20460;-83
2023/06/05 10:32:28;;;;;;;9.20;2.10;;;;;;;22.95;54.92;102441.00;5094985;28;20051;-84
2023/06/05 10:35:20;;;;;;;5.18;2.78;;;;;;;23.00;58.11;102444.00;5094853;28;20066;-84
2023/06/05 10:38:17;;;;;;;4.72;2.50;;;;;;;23.19;54.97;102440.78;5095175;28;20043;-86
2023/06/05 10:40:45;;;;;;;6.78;2.50;;;;;;;23.22;55.09;102440.41;5077003;28;20024;-86
2023/06/05 10:43:35;;;;;;;6.95;3.00;;;;;;;23.36;55.41;102443.34;5094756;28;20047;-85
2023/06/05 10:46:22;;;;;;;8.20;2.78;;;;;;;23.24;53.37;102449.25;5094986;28;20388;-85
2023/06/05 10:49:09;;;;;;;4.57;2.55;;;;;;;23.39;54.29;102437.53;5094160;28;20044;-84
2023/06/05 10:51:45;;;;;;;8.48;2.45;;;;;;;23.88;52.47;102441.59;5094753;28;20330;-85
2023/06/05 10:54:15;;;;;;;4.40;2.33;;;;;;;23.96;51.29;102441.50;5094772;28;20038;-86
2023/06/05 10:57:03;;;;;;;8.93;2.45;;;;;;;23.63;50.40;102432.88;5075831;28;20066;-84
2023/06/05 10:59:35;;;;;;;8.25;2.40;;;;;;;23.66;52.58;102436.06;5093707;28;20495;-86
2023/06/05 11:02:11;;;;;;;5.82;2.67;;;;;;;24.41;50.25;102438.69;5075954;28;20024;-87
2023/06/05 11:04:51;;;;;;;4.95;2.78;;;;;;;25.14;49.67;102433.94;5095051;28;20040;-86
2023/06/05 11:07:28;;;;;;;6.47;2.28;;;;;;;25.78;46.07;102439.38;5093971;28;20363;-84
2023/06/05 11:10:05;;;;;;;7.80;2.58;;;;;;;25.79;45.45;102438.34;5094547;28;20028;-85
2023/06/05 11:12:50;;;;;;;6.78;2.50;;;;;;;26.18;44.35;102439.56;5094271;28;20093;-85
2023/06/05 11:15:36;;;;;;;6.07;2.95;;;;;;;25.76;44.91;102430.56;5076410;28;20031;-86
2023/06/05 11:18:27;;;;;;;5.97;2.42;;;;;;;25.60;46.10;102432.59;5094081;28;20020;-86
2023/06/05 11:20:53;;;;;;;5.38;2.50;;;;;;;25.06;46.35;102425.06;5093970;28;20016;-86